sensor_id;sensor_type;location;lat;lon;timestamp;pressure;altitude;pressure_sealevel;temperature;humidity
4858;BME280;58975;51.978;8.472;2022-08-25T00:01:31;100609.47;;;20.60;100.00
4858;BME280;58975;51.978;8.472;2022-08-25T00:06:29;100606.06;;;20.44;100.00
4858;BME280;58975;51.978;8.472;2022-08-25T00:11:28;100599.88;;;20.35;100.00
4858;BME280;58975;51.978;8.472;2022-08-25T00:16:26;100606.84;;;20.29;100.00
4858;BME280;58975;51.978;8.472;2022-08-25T00:21:23;100602.84;;;20.17;100.00
4858;BME280;58975;51.978;8.472;2022-08-25T00:26:20;100594.88;;;20.01;100.00
4858;BME280;58975;51.978;8.472;2022-08-25T00:31:18;100590.28;;;20.02;100.00
4858;BME280;58975;51.978;8.472;2022-08-25T00:36:17;100594.00;;;20.01;100.00
4858;BME280;58975;51.978;8.472;2022-08-25T00:41:18;100600.31;;;19.93;100.00
4858;BME280;58975;51.978;8.472;2022-08-25T00:46:19;100594.91;;;19.93;100.00
4858;BME280;58975;51.978;8.472;2022-08-25T00:51:29;100598.16;;;19.89;100.00
4858;BME280;58975;51.978;8.472;2022-08-25T00:56:29;100598.59;;;19.69;100.00
4858;BME280;58975;51.978;8.472;2022-08-25T01:01:26;100606.22;;;19.66;100.00
4858;BME280;58975;51.978;8.472;2022-08-25T01:06:23;100606.09;;;19.59;100.00
4858;BME280;58975;51.978;8.472;2022-08-25T01:11:20;100597.34;;;19.49;100.00
4858;BME280;58975;51.978;8.472;2022-08-25T01:16:17;100600.56;;;19.45;100.00
4858;BME280;58975;51.978;8.472;2022-08-25T01:21:14;100599.59;;;19.29;100.00
4858;BME280;58975;51.978;8.472;2022-08-25T01:26:25;100595.28;;;19.12;100.00
4858;BME280;58975;51.978;8.472;2022-08-25T01:31:27;100594.31;;;18.97;100.00
4858;BME280;58975;51.978;8.472;2022-08-25T01:36:25;100591.66;;;18.81;100.00
4858;BME280;58975;51.978;8.472;2022-08-25T01:46:39;100597.06;;;18.81;100.00
4858;BME280;58975;51.978;8.472;2022-08-25T01:51:43;100597.06;;;18.73;100.00
4858;BME280;58975;51.978;8.472;2022-08-25T01:56:42;100590.69;;;18.58;100.00
4858;BME280;58975;51.978;8.472;2022-08-25T02:01:38;100596.38;;;18.47;100.00
4858;BME280;58975;51.978;8.472;2022-08-25T02:06:35;100588.97;;;18.40;100.00
4858;BME280;58975;51.978;8.472;2022-08-25T02:11:32;100583.41;;;18.42;100.00
4858;BME280;58975;51.978;8.472;2022-08-25T02:16:32;100582.06;;;18.62;100.00
4858;BME280;58975;51.978;8.472;2022-08-25T02:21:29;100590.00;;;18.64;100.00
4858;BME280;58975;51.978;8.472;2022-08-25T02:26:26;100600.28;;;18.60;100.00
4858;BME280;58975;51.978;8.472;2022-08-25T02:31:23;100593.34;;;18.50;100.00
4858;BME280;58975;51.978;8.472;2022-08-25T02:36:20;100592.16;;;18.36;100.00
4858;BME280;58975;51.978;8.472;2022-08-25T02:41:20;100585.63;;;18.38;100.00
4858;BME280;58975;51.978;8.472;2022-08-25T02:46:26;100580.22;;;18.38;100.00
4858;BME280;58975;51.978;8.472;2022-08-25T02:51:23;100584.78;;;18.38;100.00
4858;BME280;58975;51.978;8.472;2022-08-25T02:56:20;100584.59;;;18.31;100.00
4858;BME280;58975;51.978;8.472;2022-08-25T03:01:17;100580.72;;;18.26;100.00
4858;BME280;58975;51.978;8.472;2022-08-25T03:06:17;100578.19;;;18.08;100.00
4858;BME280;58975;51.978;8.472;2022-08-25T03:11:15;100568.56;;;17.89;100.00
4858;BME280;58975;51.978;8.472;2022-08-25T03:16:13;100568.06;;;17.86;100.00
4858;BME280;58975;51.978;8.472;2022-08-25T03:21:10;100573.09;;;17.81;100.00
4858;BME280;58975;51.978;8.472;2022-08-25T03:26:08;100571.56;;;17.78;100.00
4858;BME280;58975;51.978;8.472;2022-08-25T03:31:24;100564.00;;;17.74;100.00
4858;BME280;58975;51.978;8.472;2022-08-25T03:36:24;100565.16;;;17.71;100.00
4858;BME280;58975;51.978;8.472;2022-08-25T03:41:22;100559.59;;;17.65;100.00
4858;BME280;58975;51.978;8.472;2022-08-25T03:46:24;100552.53;;;17.64;100.00
4858;BME280;58975;51.978;8.472;2022-08-25T03:51:23;100550.00;;;17.62;100.00
4858;BME280;58975;51.978;8.472;2022-08-25T03:56:20;100545.47;;;17.63;100.00
4858;BME280;58975;51.978;8.472;2022-08-25T04:01:17;100543.13;;;17.68;100.00
4858;BME280;58975;51.978;8.472;2022-08-25T04:06:15;100538.06;;;17.73;100.00
4858;BME280;58975;51.978;8.472;2022-08-25T04:11:17;100535.56;;;17.87;100.00
4858;BME280;58975;51.978;8.472;2022-08-25T04:16:18;100526.66;;;17.87;100.00
4858;BME280;58975;51.978;8.472;2022-08-25T04:21:15;100528.31;;;17.88;100.00
4858;BME280;58975;51.978;8.472;2022-08-25T04:26:19;100536.06;;;17.83;100.00
4858;BME280;58975;51.978;8.472;2022-08-25T04:31:18;100536.38;;;17.88;100.00
4858;BME280;58975;51.978;8.472;2022-08-25T04:36:16;100536.72;;;17.85;100.00
4858;BME280;58975;51.978;8.472;2022-08-25T04:41:15;100524.78;;;17.79;100.00
4858;BME280;58975;51.978;8.472;2022-08-25T04:51:18;100517.19;;;17.75;100.00
4858;BME280;58975;51.978;8.472;2022-08-25T04:56:20;100524.94;;;17.70;100.00
4858;BME280;58975;51.978;8.472;2022-08-25T05:01:19;100513.31;;;17.69;100.00
4858;BME280;58975;51.978;8.472;2022-08-25T05:06:16;100508.75;;;17.70;100.00
4858;BME280;58975;51.978;8.472;2022-08-25T05:11:14;100508.94;;;17.76;100.00
4858;BME280;58975;51.978;8.472;2022-08-25T05:16:13;100515.88;;;17.87;100.00
4858;BME280;58975;51.978;8.472;2022-08-25T05:21:19;100517.53;;;17.96;100.00
4858;BME280;58975;51.978;8.472;2022-08-25T05:26:20;100510.97;;;18.07;100.00
4858;BME280;58975;51.978;8.472;2022-08-25T05:31:18;100514.97;;;18.35;100.00
4858;BME280;58975;51.978;8.472;2022-08-25T05:36:15;100522.53;;;18.72;100.00
4858;BME280;58975;51.978;8.472;2022-08-25T05:41:15;100520.13;;;19.32;100.00
4858;BME280;58975;51.978;8.472;2022-08-25T05:46:12;100528.13;;;19.79;100.00
4858;BME280;58975;51.978;8.472;2022-08-25T05:51:09;100528.13;;;20.02;100.00
4858;BME280;58975;51.978;8.472;2022-08-25T05:56:07;100531.34;;;20.20;100.00
4858;BME280;58975;51.978;8.472;2022-08-25T06:01:04;100535.31;;;20.32;100.00
4858;BME280;58975;51.978;8.472;2022-08-25T06:06:22;100528.38;;;20.52;100.00
4858;BME280;58975;51.978;8.472;2022-08-25T06:11:19;100530.53;;;20.86;100.00
4858;BME280;58975;51.978;8.472;2022-08-25T06:16:15;100518.88;;;21.00;100.00
4858;BME280;58975;51.978;8.472;2022-08-25T06:21:13;100518.75;;;21.38;100.00
4858;BME280;58975;51.978;8.472;2022-08-25T06:26:11;100515.97;;;21.67;100.00
4858;BME280;58975;51.978;8.472;2022-08-25T06:31:17;100519.19;;;21.77;100.00
4858;BME280;58975;51.978;8.472;2022-08-25T06:36:15;100520.25;;;22.19;100.00
4858;BME280;58975;51.978;8.472;2022-08-25T06:41:12;100521.09;;;22.75;100.00
4858;BME280;58975;51.978;8.472;2022-08-25T06:46:14;100515.97;;;23.34;100.00
4858;BME280;58975;51.978;8.472;2022-08-25T06:51:14;100511.34;;;23.88;100.00
4858;BME280;58975;51.978;8.472;2022-08-25T06:56:11;100527.50;;;24.42;100.00
4858;BME280;58975;51.978;8.472;2022-08-25T07:01:17;100522.03;;;24.75;100.00
4858;BME280;58975;51.978;8.472;2022-08-25T07:06:17;100519.72;;;24.99;100.00
4858;BME280;58975;51.978;8.472;2022-08-25T07:11:15;100512.75;;;25.09;100.00
4858;BME280;58975;51.978;8.472;2022-08-25T07:16:13;100523.56;;;25.29;100.00
4858;BME280;58975;51.978;8.472;2022-08-25T07:21:13;100521.44;;;25.44;100.00
4858;BME280;58975;51.978;8.472;2022-08-25T07:26:12;100528.50;;;25.58;100.00
4858;BME280;58975;51.978;8.472;2022-08-25T07:31:29;100527.13;;;25.80;100.00
4858;BME280;58975;51.978;8.472;2022-08-25T07:36:27;100538.03;;;26.12;100.00
4858;BME280;58975;51.978;8.472;2022-08-25T07:41:25;100535.28;;;26.12;100.00
4858;BME280;58975;51.978;8.472;2022-08-25T07:46:21;100539.19;;;26.29;100.00
4858;BME280;58975;51.978;8.472;2022-08-25T07:51:18;100544.94;;;26.21;100.00
4858;BME280;58975;51.978;8.472;2022-08-25T07:56:16;100541.03;;;26.35;100.00
4858;BME280;58975;51.978;8.472;2022-08-25T08:01:18;100540.34;;;26.64;100.00
4858;BME280;58975;51.978;8.472;2022-08-25T08:06:18;100545.25;;;26.80;100.00
4858;BME280;58975;51.978;8.472;2022-08-25T08:11:22;100546.75;;;26.76;100.00
4858;BME280;58975;51.978;8.472;2022-08-25T08:16:23;100541.88;;;26.85;100.00
4858;BME280;58975;51.978;8.472;2022-08-25T08:21:26;100541.78;;;27.10;100.00
4858;BME280;58975;51.978;8.472;2022-08-25T08:26:23;100540.16;;;27.09;99.24
4858;BME280;58975;51.978;8.472;2022-08-25T08:31:37;100540.72;;;27.29;96.34
4858;BME280;58975;51.978;8.472;2022-08-25T08:36:33;100535.94;;;27.61;97.79
4858;BME280;58975;51.978;8.472;2022-08-25T08:52:35;100515.50;;;27.63;86.48
4858;BME280;58975;51.978;8.472;2022-08-25T08:57:34;100509.91;;;27.70;89.13
4858;BME280;58975;51.978;8.472;2022-08-25T09:02:45;100514.63;;;27.93;86.70
4858;BME280;58975;51.978;8.472;2022-08-25T09:07:52;100510.19;;;28.10;83.85
4858;BME280;58975;51.978;8.472;2022-08-25T09:18:38;100514.00;;;28.09;84.50
4858;BME280;58975;51.978;8.472;2022-08-25T09:29:22;100487.97;;;28.53;80.52
4858;BME280;58975;51.978;8.472;2022-08-25T09:34:23;100487.69;;;28.54;74.95
4858;BME280;58975;51.978;8.472;2022-08-25T09:39:23;100480.59;;;28.77;77.07
4858;BME280;58975;51.978;8.472;2022-08-25T09:44:25;100482.97;;;28.61;73.35
4858;BME280;58975;51.978;8.472;2022-08-25T09:49:30;100473.19;;;28.65;75.10
4858;BME280;58975;51.978;8.472;2022-08-25T09:54:27;100457.56;;;28.89;76.33
4858;BME280;58975;51.978;8.472;2022-08-25T09:59:39;100452.38;;;29.16;71.78
4858;BME280;58975;51.978;8.472;2022-08-25T10:04:52;100444.59;;;29.13;70.56
4858;BME280;58975;51.978;8.472;2022-08-25T10:09:55;100435.00;;;29.39;71.30
4858;BME280;58975;51.978;8.472;2022-08-25T10:14:52;100426.19;;;29.25;70.92
4858;BME280;58975;51.978;8.472;2022-08-25T10:19:52;100415.66;;;29.45;68.30
4858;BME280;58975;51.978;8.472;2022-08-25T10:24:49;100401.03;;;29.56;68.96
4858;BME280;58975;51.978;8.472;2022-08-25T10:34:53;100393.63;;;29.57;65.21
4858;BME280;58975;51.978;8.472;2022-08-25T10:40:26;100379.94;;;29.74;63.86
4858;BME280;58975;51.978;8.472;2022-08-25T10:45:27;100378.19;;;30.01;63.96
4858;BME280;58975;51.978;8.472;2022-08-25T10:50:46;100382.66;;;29.74;63.13
4858;BME280;58975;51.978;8.472;2022-08-25T10:56:01;100360.88;;;30.00;60.67
4858;BME280;58975;51.978;8.472;2022-08-25T11:06:06;100349.81;;;30.50;58.07
4858;BME280;58975;51.978;8.472;2022-08-25T11:11:11;100354.66;;;30.87;56.42
4858;BME280;58975;51.978;8.472;2022-08-25T11:16:12;100338.28;;;30.97;55.91
4858;BME280;58975;51.978;8.472;2022-08-25T11:21:22;100335.81;;;31.22;56.31
4858;BME280;58975;51.978;8.472;2022-08-25T11:26:26;100344.03;;;31.44;53.88
4858;BME280;58975;51.978;8.472;2022-08-25T11:31:38;100336.41;;;31.24;53.48
4858;BME280;58975;51.978;8.472;2022-08-25T11:36:37;100337.06;;;31.36;53.26
4858;BME280;58975;51.978;8.472;2022-08-25T11:41:45;100331.94;;;31.50;51.51
4858;BME280;58975;51.978;8.472;2022-08-25T11:51:56;100323.06;;;31.11;51.33
4858;BME280;58975;51.978;8.472;2022-08-25T11:57:04;100332.59;;;30.38;51.48
4858;BME280;58975;51.978;8.472;2022-08-25T12:02:02;100336.69;;;29.97;52.92
4858;BME280;58975;51.978;8.472;2022-08-25T12:17:38;100326.69;;;31.43;50.95
4858;BME280;58975;51.978;8.472;2022-08-25T12:33:47;100313.88;;;31.27;48.69
4858;BME280;58975;51.978;8.472;2022-08-25T12:38:49;100307.88;;;32.04;49.25
4858;BME280;58975;51.978;8.472;2022-08-25T12:43:51;100316.13;;;31.99;46.83
4858;BME280;58975;51.978;8.472;2022-08-25T12:49:03;100305.66;;;32.01;48.56
4858;BME280;58975;51.978;8.472;2022-08-25T12:59:36;100281.41;;;32.03;47.33
4858;BME280;58975;51.978;8.472;2022-08-25T13:15:15;100284.75;;;31.31;49.97
4858;BME280;58975;51.978;8.472;2022-08-25T13:20:25;100267.59;;;30.97;49.88
4858;BME280;58975;51.978;8.472;2022-08-25T13:25:23;100276.81;;;30.38;51.08
4858;BME280;58975;51.978;8.472;2022-08-25T13:30:33;100260.56;;;29.76;53.25
4858;BME280;58975;51.978;8.472;2022-08-25T13:35:30;100260.94;;;29.46;54.07
4858;BME280;58975;51.978;8.472;2022-08-25T13:40:29;100256.09;;;29.70;54.83
4858;BME280;58975;51.978;8.472;2022-08-25T13:45:31;100245.25;;;29.80;53.92
4858;BME280;58975;51.978;8.472;2022-08-25T13:50:40;100249.28;;;29.39;53.81
4858;BME280;58975;51.978;8.472;2022-08-25T13:55:49;100247.91;;;29.25;55.13
4858;BME280;58975;51.978;8.472;2022-08-25T14:01:00;100235.16;;;29.47;53.31
4858;BME280;58975;51.978;8.472;2022-08-25T14:06:21;100224.94;;;29.81;53.90
4858;BME280;58975;51.978;8.472;2022-08-25T14:16:32;100218.31;;;29.77;53.85
4858;BME280;58975;51.978;8.472;2022-08-25T14:21:32;100209.03;;;29.62;52.92
4858;BME280;58975;51.978;8.472;2022-08-25T14:26:29;100195.41;;;30.54;52.07
4858;BME280;58975;51.978;8.472;2022-08-25T14:31:29;100187.19;;;31.12;49.90
4858;BME280;58975;51.978;8.472;2022-08-25T14:36:32;100189.22;;;31.27;49.83
4858;BME280;58975;51.978;8.472;2022-08-25T14:41:28;100184.91;;;31.78;47.84
4858;BME280;58975;51.978;8.472;2022-08-25T14:46:27;100179.63;;;32.33;45.29
4858;BME280;58975;51.978;8.472;2022-08-25T14:51:25;100170.91;;;32.67;43.84
4858;BME280;58975;51.978;8.472;2022-08-25T14:56:25;100180.03;;;32.82;44.37
4858;BME280;58975;51.978;8.472;2022-08-25T15:01:25;100157.41;;;33.06;41.98
4858;BME280;58975;51.978;8.472;2022-08-25T15:06:25;100167.34;;;32.92;42.66
4858;BME280;58975;51.978;8.472;2022-08-25T15:11:22;100162.00;;;32.29;42.40
4858;BME280;58975;51.978;8.472;2022-08-25T15:16:26;100170.25;;;32.29;42.36
4858;BME280;58975;51.978;8.472;2022-08-25T15:21:30;100160.38;;;32.44;42.09
4858;BME280;58975;51.978;8.472;2022-08-25T15:26:26;100147.75;;;32.73;42.93
4858;BME280;58975;51.978;8.472;2022-08-25T15:31:23;100146.09;;;32.62;41.84
4858;BME280;58975;51.978;8.472;2022-08-25T15:36:23;100137.22;;;32.60;41.82
4858;BME280;58975;51.978;8.472;2022-08-25T15:41:20;100138.94;;;32.66;40.20
4858;BME280;58975;51.978;8.472;2022-08-25T15:46:24;100124.88;;;32.93;40.41
4858;BME280;58975;51.978;8.472;2022-08-25T15:51:22;100133.13;;;33.28;41.19
4858;BME280;58975;51.978;8.472;2022-08-25T15:56:19;100125.44;;;32.85;40.65
4858;BME280;58975;51.978;8.472;2022-08-25T16:01:24;100135.88;;;32.82;40.94
4858;BME280;58975;51.978;8.472;2022-08-25T16:06:24;100128.44;;;32.83;39.99
4858;BME280;58975;51.978;8.472;2022-08-25T16:11:27;100124.03;;;32.72;41.31
4858;BME280;58975;51.978;8.472;2022-08-25T16:16:27;100120.72;;;32.80;40.14
4858;BME280;58975;51.978;8.472;2022-08-25T16:21:28;100122.31;;;32.35;41.37
4858;BME280;58975;51.978;8.472;2022-08-25T16:26:25;100120.69;;;32.45;39.34
4858;BME280;58975;51.978;8.472;2022-08-25T16:31:22;100109.41;;;32.66;39.00
4858;BME280;58975;51.978;8.472;2022-08-25T16:36:22;100116.03;;;32.80;38.62
4858;BME280;58975;51.978;8.472;2022-08-25T16:41:25;100115.78;;;32.77;39.00
4858;BME280;58975;51.978;8.472;2022-08-25T16:46:27;100109.41;;;34.06;36.81
4858;BME280;58975;51.978;8.472;2022-08-25T16:51:24;100110.66;;;35.83;35.75
4858;BME280;58975;51.978;8.472;2022-08-25T16:56:27;100102.97;;;38.29;31.23
4858;BME280;58975;51.978;8.472;2022-08-25T17:01:25;100102.63;;;39.90;29.05
4858;BME280;58975;51.978;8.472;2022-08-25T17:06:24;100108.75;;;40.86;27.80
4858;BME280;58975;51.978;8.472;2022-08-25T17:11:23;100100.13;;;39.32;29.16
4858;BME280;58975;51.978;8.472;2022-08-25T17:16:24;100101.34;;;39.48;29.29
4858;BME280;58975;51.978;8.472;2022-08-25T17:21:24;100099.66;;;39.38;28.89
4858;BME280;58975;51.978;8.472;2022-08-25T17:26:24;100095.16;;;39.68;28.58
4858;BME280;58975;51.978;8.472;2022-08-25T17:31:24;100094.66;;;40.31;28.16
4858;BME280;58975;51.978;8.472;2022-08-25T17:36:23;100097.13;;;40.41;27.23
4858;BME280;58975;51.978;8.472;2022-08-25T17:41:22;100098.00;;;39.29;28.48
4858;BME280;58975;51.978;8.472;2022-08-25T17:46:19;100103.44;;;38.45;29.78
4858;BME280;58975;51.978;8.472;2022-08-25T17:51:16;100111.69;;;35.11;34.30
4858;BME280;58975;51.978;8.472;2022-08-25T17:56:15;100117.91;;;32.34;40.18
4858;BME280;58975;51.978;8.472;2022-08-25T18:01:17;100118.16;;;30.82;44.61
4858;BME280;58975;51.978;8.472;2022-08-25T18:06:14;100111.00;;;29.79;47.39
4858;BME280;58975;51.978;8.472;2022-08-25T18:11:11;100117.50;;;28.96;50.76
4858;BME280;58975;51.978;8.472;2022-08-25T18:16:09;100120.38;;;28.28;53.64
4858;BME280;58975;51.978;8.472;2022-08-25T18:21:10;100115.78;;;27.77;55.78
4858;BME280;58975;51.978;8.472;2022-08-25T18:26:08;100117.75;;;27.29;60.30
4858;BME280;58975;51.978;8.472;2022-08-25T18:31:08;100114.06;;;26.89;66.15
4858;BME280;58975;51.978;8.472;2022-08-25T18:36:05;100118.13;;;26.57;71.06
4858;BME280;58975;51.978;8.472;2022-08-25T18:41:04;100112.34;;;26.23;73.07
4858;BME280;58975;51.978;8.472;2022-08-25T18:46:02;100111.56;;;25.86;80.89
4858;BME280;58975;51.978;8.472;2022-08-25T18:51:00;100121.28;;;25.64;86.14
4858;BME280;58975;51.978;8.472;2022-08-25T18:55:56;100117.59;;;25.34;93.34
4858;BME280;58975;51.978;8.472;2022-08-25T19:00:53;100127.09;;;25.07;100.00
4858;BME280;58975;51.978;8.472;2022-08-25T19:05:50;100121.88;;;24.80;100.00
4858;BME280;58975;51.978;8.472;2022-08-25T19:10:52;100118.28;;;24.55;100.00
4858;BME280;58975;51.978;8.472;2022-08-25T19:15:49;100118.47;;;24.29;100.00
4858;BME280;58975;51.978;8.472;2022-08-25T19:20:47;100126.31;;;24.06;100.00
4858;BME280;58975;51.978;8.472;2022-08-25T19:25:47;100117.44;;;23.85;100.00
4858;BME280;58975;51.978;8.472;2022-08-25T19:30:44;100120.03;;;23.67;100.00
4858;BME280;58975;51.978;8.472;2022-08-25T19:35:49;100118.81;;;23.50;100.00
4858;BME280;58975;51.978;8.472;2022-08-25T19:40:49;100112.56;;;23.30;100.00
4858;BME280;58975;51.978;8.472;2022-08-25T19:45:46;100112.38;;;23.18;100.00
4858;BME280;58975;51.978;8.472;2022-08-25T19:50:42;100118.88;;;22.97;100.00
4858;BME280;58975;51.978;8.472;2022-08-25T19:55:39;100118.69;;;22.92;100.00
4858;BME280;58975;51.978;8.472;2022-08-25T20:00:38;100123.09;;;22.93;100.00
4858;BME280;58975;51.978;8.472;2022-08-25T20:05:36;100122.88;;;22.88;100.00
4858;BME280;58975;51.978;8.472;2022-08-25T20:10:33;100116.41;;;22.76;100.00
4858;BME280;58975;51.978;8.472;2022-08-25T20:15:37;100120.94;;;22.62;100.00
4858;BME280;58975;51.978;8.472;2022-08-25T20:20:34;100130.34;;;22.53;100.00
4858;BME280;58975;51.978;8.472;2022-08-25T20:25:31;100121.75;;;22.43;100.00
4858;BME280;58975;51.978;8.472;2022-08-25T20:30:32;100116.94;;;22.32;100.00
4858;BME280;58975;51.978;8.472;2022-08-25T20:35:28;100120.91;;;22.30;100.00
4858;BME280;58975;51.978;8.472;2022-08-25T20:40:27;100125.50;;;22.23;100.00
4858;BME280;58975;51.978;8.472;2022-08-25T20:45:24;100122.56;;;22.17;100.00
4858;BME280;58975;51.978;8.472;2022-08-25T20:50:20;100121.31;;;22.20;100.00
4858;BME280;58975;51.978;8.472;2022-08-25T20:55:19;100118.13;;;22.03;100.00
4858;BME280;58975;51.978;8.472;2022-08-25T21:00:17;100109.94;;;21.90;100.00
4858;BME280;58975;51.978;8.472;2022-08-25T21:05:19;100113.69;;;21.89;100.00
4858;BME280;58975;51.978;8.472;2022-08-25T21:10:17;100114.28;;;21.78;100.00
4858;BME280;58975;51.978;8.472;2022-08-25T21:15:13;100114.03;;;21.73;100.00
4858;BME280;58975;51.978;8.472;2022-08-25T21:20:13;100108.16;;;21.63;100.00
4858;BME280;58975;51.978;8.472;2022-08-25T21:25:09;100106.88;;;21.59;100.00
4858;BME280;58975;51.978;8.472;2022-08-25T21:30:07;100111.63;;;21.50;100.00
4858;BME280;58975;51.978;8.472;2022-08-25T21:35:04;100108.91;;;21.44;100.00
4858;BME280;58975;51.978;8.472;2022-08-25T21:40:03;100107.22;;;21.43;100.00
4858;BME280;58975;51.978;8.472;2022-08-25T21:45:04;100111.38;;;21.39;100.00
4858;BME280;58975;51.978;8.472;2022-08-25T21:50:10;100112.84;;;21.41;100.00
4858;BME280;58975;51.978;8.472;2022-08-25T21:55:08;100113.91;;;21.47;100.00
4858;BME280;58975;51.978;8.472;2022-08-25T22:00:11;100110.97;;;21.42;100.00
4858;BME280;58975;51.978;8.472;2022-08-25T22:05:10;100107.22;;;21.43;100.00
4858;BME280;58975;51.978;8.472;2022-08-25T22:10:07;100109.06;;;21.36;100.00
4858;BME280;58975;51.978;8.472;2022-08-25T22:15:13;100100.72;;;21.37;100.00
4858;BME280;58975;51.978;8.472;2022-08-25T22:20:10;100104.75;;;21.48;100.00
4858;BME280;58975;51.978;8.472;2022-08-25T22:25:07;100106.41;;;21.49;100.00
4858;BME280;58975;51.978;8.472;2022-08-25T22:30:04;100109.38;;;21.54;100.00
4858;BME280;58975;51.978;8.472;2022-08-25T22:35:01;100099.09;;;21.43;100.00
4858;BME280;58975;51.978;8.472;2022-08-25T22:39:58;100096.38;;;21.36;100.00
4858;BME280;58975;51.978;8.472;2022-08-25T22:44:57;100098.66;;;21.39;100.00
4858;BME280;58975;51.978;8.472;2022-08-25T22:49:53;100096.31;;;21.30;100.00
4858;BME280;58975;51.978;8.472;2022-08-25T22:54:51;100084.00;;;21.27;100.00
4858;BME280;58975;51.978;8.472;2022-08-25T22:59:48;100088.72;;;21.12;100.00
4858;BME280;58975;51.978;8.472;2022-08-25T23:04:44;100085.28;;;21.03;100.00
4858;BME280;58975;51.978;8.472;2022-08-25T23:09:41;100086.00;;;20.84;100.00
4858;BME280;58975;51.978;8.472;2022-08-25T23:14:39;100087.56;;;20.72;100.00
4858;BME280;58975;51.978;8.472;2022-08-25T23:19:39;100087.56;;;20.72;100.00
4858;BME280;58975;51.978;8.472;2022-08-25T23:24:41;100081.72;;;20.68;100.00
4858;BME280;58975;51.978;8.472;2022-08-25T23:29:40;100075.47;;;20.68;100.00
4858;BME280;58975;51.978;8.472;2022-08-25T23:34:37;100074.97;;;20.58;100.00
4858;BME280;58975;51.978;8.472;2022-08-25T23:39:35;100067.75;;;20.44;100.00
4858;BME280;58975;51.978;8.472;2022-08-25T23:44:34;100057.97;;;20.21;100.00
4858;BME280;58975;51.978;8.472;2022-08-25T23:49:32;100057.78;;;20.02;100.00
4858;BME280;58975;51.978;8.472;2022-08-25T23:54:28;100052.75;;;19.99;100.00
4858;BME280;58975;51.978;8.472;2022-08-25T23:59:27;100052.31;;;19.95;100.00
